Terminal Aerodrome Forecast
Issued by NWS

Home | Current Version | Previous Version | Text Only | Print | Product List | Glossary On
Versions: 1 2 3 4 5 6 7 8 9 10 11 12 13 14 15 16 17 18 19 20 21 22 23 24 25 26 27 28 29 30 31 32
222
FTUS41 KAKQ 222116 AAB
TAFPHF
TAF AMD
KPHF 222116Z 2221/2318 02004KT 3SM BR OVC004
      TEMPO 2221/2224 1SM -DZ BR OVC003
     FM230000 04006KT 2SM BR OVC004
     FM230300 06012KT 2SM RA BR OVC004
     FM231200 11011KT 2SM RA BR OVC003
     FM231400 15008KT 4SM -RA BR OVC005=

USA.gov is the U.S. government's official web portal to all federal, state and local government web resources and services.